Hovedside
METAR-TAF:

METAR-TAF

Lufthavner :

Pajala lufthavn

Pajala, Sverige

breddegrad: 67-14-44N, lengdegrad: 023-04-08E, høyde over havet: 165 m

Gjeldene værobservasjon

Denne rapporten ble laget for 15 minutter siden, klokken 09:20 UTC
Vind 6 kt fra Sør
Temperatur 13°C
Luftfuktighet 94%
Trykk 998 hPa
Sikt 10 km eller mer

METAR: ESUP 190920Z AUTO 17006KT 9999 OVC007/// 13/12 Q0998

Tid: 11:35 (09:35 UTC)


TAF: fraværende

Værobservasjoner og værvarsel for over 4000 flyplasser (METAR- og TAF-rapporter).

Tilgjengelige stasjoner er representert av de røde og gule prikkene på kartet.

Hold musepekeren over prikken for å se navnet på stasjonen.

Klikk så for å se værobservasjoner og -varsler.

For å forandre kartet kan du klikke på den grønne knappen med svart kryss for å zoome inn, på den grønne knappen med strek for å zoome ut, eller på de grønne pilene for å se tilstøtende kart.


METAR-TAF: